Mandoudi — SV3198 — position and weather

sailwx.info

Track history (hours):
 
Tides and Currents Weather Stations Pressure Air Temp Water Temp Dewpoint Dewpoint Depression Visibility Wind Speed Wind Dir Waves Ship Positions

Mandoudi

Last reported at 2017-Mar-23 11:33 UTC. Time now 2017-Mar-23 12:31 UTC.
Position N 38°02' E 023°31'.

Length 60 m; draft 4.6 m.

Type: Ship (hazmat cat A). MMSI: 237470200.

Date/timePositionNaut miles runAvg speedWind from/ knotsBaromVisibWave heightAir tempDewpointWater temp
2017-Mar-23 11:33N 38°02' E 023°31'0 0.0
2017-Mar-23 10:33N 38°02' E 023°31'0 0.0
2017-Mar-23 09:33N 38°02' E 023°31'7 6.9
2017-Mar-23 08:33N 37°57' E 023°36'2 1.5
2017-Mar-23 07:29N 37°57' E 023°38'0 0.0
2017-Mar-23 06:24N 37°57' E 023°38'6 6.6
2017-Mar-23 05:33N 38°00' E 023°33'2 1.7
2017-Mar-23 04:33N 38°02' E 023°32'3 2.6
2017-Mar-23 03:33N 38°02' E 023°35'0 0.0
2017-Mar-23 02:33N 38°02' E 023°35'0 0.0
2017-Mar-23 01:33N 38°02' E 023°35'0 0.0
2017-Mar-23 00:33N 38°02' E 023°35'0 0.0
2017-Mar-22 23:33N 38°02' E 023°35'0 0.0
2017-Mar-22 22:33N 38°02' E 023°35'0 0.0
2017-Mar-22 21:34N 38°02' E 023°35'1 0.6
2017-Mar-22 20:33N 38°02' E 023°36'0 0.0
2017-Mar-22 19:33N 38°02' E 023°36'0 0.0
2017-Mar-22 18:33N 38°02' E 023°36'1 0.5
2017-Mar-22 17:33N 38°01' E 023°35'0 0.0
2017-Mar-22 16:33N 38°01' E 023°35'0 0.0
2017-Mar-22 15:33N 38°01' E 023°35'0 0.0
2017-Mar-22 14:33N 38°01' E 023°35'0 0.0
2017-Mar-22 13:33N 38°01' E 023°35'0 0.0
2017-Mar-22 12:33N 38°01' E 023°35'0 0.0
2017-Mar-22 11:33N 38°01' E 023°35'0 0.4
2017-Mar-22 10:33N 38°01' E 023°35'4 0.2
2017-Mar-21 17:15N 37°57' E 023°36'3 4.6
2017-Mar-21 16:33N 37°55' E 023°34'0 0.0
2017-Mar-21 15:27N 37°55' E 023°34'3 0.3
2017-Mar-21 05:24N 37°57' E 023°36'4 4.6
2017-Mar-21 04:33N 38°01' E 023°33'1 1.5
2017-Mar-21 03:33N 38°01' E 023°35'0 0.0
2017-Mar-21 02:33N 38°01' E 023°35'0 0.0
2017-Mar-21 01:33N 38°01' E 023°35'0 0.0
2017-Mar-21 00:32N 38°01' E 023°35'0 0.0
2017-Mar-20 23:33N 38°01' E 023°35'0 0.0
2017-Mar-20 22:33N 38°01' E 023°35'0 0.0
2017-Mar-20 21:33N 38°01' E 023°35'0 0.0
2017-Mar-20 20:33N 38°01' E 023°35'0 0.0
2017-Mar-20 19:33N 38°01' E 023°35'0 0.0
2017-Mar-20 18:33N 38°01' E 023°35'1 0.7
2017-Mar-20 17:33N 38°02' E 023°36'0 0.0
2017-Mar-20 16:33N 38°02' E 023°36'0 0.0
2017-Mar-20 15:33N 38°02' E 023°36'0 0.0
2017-Mar-20 14:33N 38°02' E 023°36'1 0.5
2017-Mar-20 13:33N 38°02' E 023°35'5 5.0
2017-Mar-20 12:34N 37°57' E 023°36'1 1.0
2017-Mar-20 11:25N 37°56' E 023°38'0 0.0
2017-Mar-20 06:29N 37°57' E 023°38'2 0.0
2017-Mar-18 08:14N 37°57' E 023°36'5 7.4
2017-Mar-18 07:33N 38°01' E 023°33'0 0.1
2017-Mar-18 06:33N 38°01' E 023°33'4 3.9
2017-Mar-18 05:33N 37°58' E 023°33'0 0.0
2017-Mar-17 18:33N 37°58' E 023°33'5 4.7
2017-Mar-17 17:33N 38°02' E 023°31'0 0.0
2017-Mar-17 16:33N 38°02' E 023°31'0 0.0
2017-Mar-17 15:33N 38°02' E 023°31'0 0.0
2017-Mar-17 14:33N 38°02' E 023°31'0 0.0
2017-Mar-17 13:33N 38°02' E 023°31'0 0.0
2017-Mar-17 12:33N 38°02' E 023°31'8 1.2
2017-Mar-17 06:06N 37°56' E 023°38'2 0.2
2017-Mar-16 20:24N 37°57' E 023°36'4 5.2
2017-Mar-16 19:33N 38°02' E 023°36'0 0.0
2017-Mar-16 18:33N 38°02' E 023°36'0 0.0
2017-Mar-16 17:33N 38°02' E 023°36'1 0.6
2017-Mar-16 16:33N 38°02' E 023°35'0 0.0
2017-Mar-16 15:33N 38°02' E 023°35'3 3.3
2017-Mar-16 14:33N 38°02' E 023°31'0 0.0
2017-Mar-16 13:33N 38°02' E 023°31'0 0.0
2017-Mar-16 12:33N 38°02' E 023°31'0 0.0
2017-Mar-16 11:33N 38°02' E 023°31'1 1.0
2017-Mar-16 10:33N 38°02' E 023°32'7 6.9
2017-Mar-16 09:33N 37°56' E 023°37'1 0.8
2017-Mar-16 08:31N 37°57' E 023°38'0 0.1
2017-Mar-16 07:32N 37°57' E 023°38'0 0.0
2017-Mar-16 06:33N 37°57' E 023°38'0 0.0
2017-Mar-16 05:33N 37°57' E 023°38'3 3.1
2017-Mar-16 04:34N 37°57' E 023°34'4 4.2
2017-Mar-16 03:33N 38°01' E 023°35'0 0.0
2017-Mar-16 02:33N 38°01' E 023°35'0 0.0
2017-Mar-16 01:33N 38°01' E 023°35'1 0.9
2017-Mar-16 00:33N 38°02' E 023°36'0 0.0
2017-Mar-15 23:33N 38°02' E 023°36'0 0.0
2017-Mar-15 22:33N 38°02' E 023°36'0 0.2
2017-Mar-15 21:33N 38°02' E 023°35'0 0.3
2017-Mar-15 20:33N 38°02' E 023°35'0 0.0
2017-Mar-15 19:33N 38°02' E 023°35'0 0.0
2017-Mar-15 18:32N 38°02' E 023°35'0 0.0
2017-Mar-15 17:33N 38°02' E 023°35'2 2.2
2017-Mar-15 16:33N 38°02' E 023°32'1 1.3
2017-Mar-15 15:33N 38°02' E 023°31'0 0.0
2017-Mar-15 14:33N 38°02' E 023°31'0 0.0
2017-Mar-15 13:33N 38°02' E 023°31'1 0.6
2017-Mar-15 12:33N 38°02' E 023°31'6 5.6
2017-Mar-15 11:33N 37°57' E 023°35'0 0.1
2017-Mar-15 10:33N 37°57' E 023°35'0 0.1
2017-Mar-15 09:33N 37°57' E 023°35'0 0.0
2017-Mar-15 08:33N 37°57' E 023°35'0 0.0
2017-Mar-15 07:33N 37°57' E 023°35'0 0.1
2017-Mar-15 06:33N 37°57' E 023°35'3 0.2
2017-Mar-14 16:33N 37°59' E 023°33'4 3.8
2017-Mar-14 15:33N 38°02' E 023°36'0 0.0
2017-Mar-14 14:33N 38°02' E 023°36'0 0.0
2017-Mar-14 13:33N 38°02' E 023°36'1 0.6
2017-Mar-14 12:33N 38°02' E 023°35'3 2.5
2017-Mar-14 11:33N 38°02' E 023°32'0 0.0
2017-Mar-14 10:33N 38°02' E 023°32'0 0.0
2017-Mar-14 09:33N 38°02' E 023°32'0 0.0
2017-Mar-14 08:33N 38°02' E 023°32'0 0.0
2017-Mar-14 07:33N 38°02' E 023°32'6 6.1
2017-Mar-14 06:33N 37°57' E 023°35'1 0.1
2017-Mar-13 17:14N 37°57' E 023°36'4 5.6
2017-Mar-13 16:33N 38°01' E 023°34'2 1.5
2017-Mar-13 15:33N 38°02' E 023°36'0 0.0
2017-Mar-13 14:32N 38°02' E 023°36'0 0.0
2017-Mar-13 13:33N 38°02' E 023°36'1 1.4
2017-Mar-13 12:33N 38°01' E 023°34'  
Track history (hours):
 
Tides and Currents Weather Stations Pressure Air Temp Water Temp Dewpoint Dewpoint Depression Visibility Wind Speed Wind Dir Waves Ship Positions

Mandoudi

Last reported at 2017-Mar-23 11:33 UTC. Time now 2017-Mar-23 12:31 UTC.
Position N 38°02' E 023°31'.

Length 60 m; draft 4.6 m.

Type: Ship (hazmat cat A). MMSI: 237470200.

Date/timePositionNaut miles runAvg speedWind from/ knotsBaromVisibWave heightAir tempDewpointWater temp
2017-Mar-23 11:33N 38°02' E 023°31'0 0.0
2017-Mar-23 10:33N 38°02' E 023°31'0 0.0
2017-Mar-23 09:33N 38°02' E 023°31'7 6.9
2017-Mar-23 08:33N 37°57' E 023°36'2 1.5
2017-Mar-23 07:29N 37°57' E 023°38'0 0.0
2017-Mar-23 06:24N 37°57' E 023°38'6 6.6
2017-Mar-23 05:33N 38°00' E 023°33'2 1.7
2017-Mar-23 04:33N 38°02' E 023°32'3 2.6
2017-Mar-23 03:33N 38°02' E 023°35'0 0.0
2017-Mar-23 02:33N 38°02' E 023°35'0 0.0
2017-Mar-23 01:33N 38°02' E 023°35'0 0.0
2017-Mar-23 00:33N 38°02' E 023°35'0 0.0
2017-Mar-22 23:33N 38°02' E 023°35'0 0.0
2017-Mar-22 22:33N 38°02' E 023°35'0 0.0
2017-Mar-22 21:34N 38°02' E 023°35'1 0.6
2017-Mar-22 20:33N 38°02' E 023°36'0 0.0
2017-Mar-22 19:33N 38°02' E 023°36'0 0.0
2017-Mar-22 18:33N 38°02' E 023°36'1 0.5
2017-Mar-22 17:33N 38°01' E 023°35'0 0.0
2017-Mar-22 16:33N 38°01' E 023°35'0 0.0
2017-Mar-22 15:33N 38°01' E 023°35'0 0.0
2017-Mar-22 14:33N 38°01' E 023°35'0 0.0
2017-Mar-22 13:33N 38°01' E 023°35'0 0.0
2017-Mar-22 12:33N 38°01' E 023°35'0 0.0
2017-Mar-22 11:33N 38°01' E 023°35'0 0.4
2017-Mar-22 10:33N 38°01' E 023°35'4 0.2
2017-Mar-21 17:15N 37°57' E 023°36'3 4.6
2017-Mar-21 16:33N 37°55' E 023°34'0 0.0
2017-Mar-21 15:27N 37°55' E 023°34'3 0.3
2017-Mar-21 05:24N 37°57' E 023°36'4 4.6
2017-Mar-21 04:33N 38°01' E 023°33'1 1.5
2017-Mar-21 03:33N 38°01' E 023°35'0 0.0
2017-Mar-21 02:33N 38°01' E 023°35'0 0.0
2017-Mar-21 01:33N 38°01' E 023°35'0 0.0
2017-Mar-21 00:32N 38°01' E 023°35'0 0.0
2017-Mar-20 23:33N 38°01' E 023°35'0 0.0
2017-Mar-20 22:33N 38°01' E 023°35'0 0.0
2017-Mar-20 21:33N 38°01' E 023°35'0 0.0
2017-Mar-20 20:33N 38°01' E 023°35'0 0.0
2017-Mar-20 19:33N 38°01' E 023°35'0 0.0
2017-Mar-20 18:33N 38°01' E 023°35'1 0.7
2017-Mar-20 17:33N 38°02' E 023°36'0 0.0
2017-Mar-20 16:33N 38°02' E 023°36'0 0.0
2017-Mar-20 15:33N 38°02' E 023°36'0 0.0
2017-Mar-20 14:33N 38°02' E 023°36'1 0.5
2017-Mar-20 13:33N 38°02' E 023°35'5 5.0
2017-Mar-20 12:34N 37°57' E 023°36'1 1.0
2017-Mar-20 11:25N 37°56' E 023°38'0 0.0
2017-Mar-20 06:29N 37°57' E 023°38'2 0.0
2017-Mar-18 08:14N 37°57' E 023°36'5 7.4
2017-Mar-18 07:33N 38°01' E 023°33'0 0.1
2017-Mar-18 06:33N 38°01' E 023°33'4 3.9
2017-Mar-18 05:33N 37°58' E 023°33'0 0.0
2017-Mar-17 18:33N 37°58' E 023°33'5 4.7
2017-Mar-17 17:33N 38°02' E 023°31'0 0.0
2017-Mar-17 16:33N 38°02' E 023°31'0 0.0
2017-Mar-17 15:33N 38°02' E 023°31'0 0.0
2017-Mar-17 14:33N 38°02' E 023°31'0 0.0
2017-Mar-17 13:33N 38°02' E 023°31'0 0.0
2017-Mar-17 12:33N 38°02' E 023°31'8 1.2
2017-Mar-17 06:06N 37°56' E 023°38'2 0.2
2017-Mar-16 20:24N 37°57' E 023°36'4 5.2
2017-Mar-16 19:33N 38°02' E 023°36'0 0.0
2017-Mar-16 18:33N 38°02' E 023°36'0 0.0
2017-Mar-16 17:33N 38°02' E 023°36'1 0.6
2017-Mar-16 16:33N 38°02' E 023°35'0 0.0
2017-Mar-16 15:33N 38°02' E 023°35'3 3.3
2017-Mar-16 14:33N 38°02' E 023°31'0 0.0
2017-Mar-16 13:33N 38°02' E 023°31'0 0.0
2017-Mar-16 12:33N 38°02' E 023°31'0 0.0
2017-Mar-16 11:33N 38°02' E 023°31'1 1.0
2017-Mar-16 10:33N 38°02' E 023°32'7 6.9
2017-Mar-16 09:33N 37°56' E 023°37'1 0.8
2017-Mar-16 08:31N 37°57' E 023°38'0 0.1
2017-Mar-16 07:32N 37°57' E 023°38'0 0.0
2017-Mar-16 06:33N 37°57' E 023°38'0 0.0
2017-Mar-16 05:33N 37°57' E 023°38'3 3.1
2017-Mar-16 04:34N 37°57' E 023°34'4 4.2
2017-Mar-16 03:33N 38°01' E 023°35'0 0.0
2017-Mar-16 02:33N 38°01' E 023°35'0 0.0
2017-Mar-16 01:33N 38°01' E 023°35'1 0.9
2017-Mar-16 00:33N 38°02' E 023°36'0 0.0
2017-Mar-15 23:33N 38°02' E 023°36'0 0.0
2017-Mar-15 22:33N 38°02' E 023°36'0 0.2
2017-Mar-15 21:33N 38°02' E 023°35'0 0.3
2017-Mar-15 20:33N 38°02' E 023°35'0 0.0
2017-Mar-15 19:33N 38°02' E 023°35'0 0.0
2017-Mar-15 18:32N 38°02' E 023°35'0 0.0
2017-Mar-15 17:33N 38°02' E 023°35'2 2.2
2017-Mar-15 16:33N 38°02' E 023°32'1 1.3
2017-Mar-15 15:33N 38°02' E 023°31'0 0.0
2017-Mar-15 14:33N 38°02' E 023°31'0 0.0
2017-Mar-15 13:33N 38°02' E 023°31'1 0.6
2017-Mar-15 12:33N 38°02' E 023°31'6 5.6
2017-Mar-15 11:33N 37°57' E 023°35'0 0.1
2017-Mar-15 10:33N 37°57' E 023°35'0 0.1
2017-Mar-15 09:33N 37°57' E 023°35'0 0.0
2017-Mar-15 08:33N 37°57' E 023°35'0 0.0
2017-Mar-15 07:33N 37°57' E 023°35'0 0.1
2017-Mar-15 06:33N 37°57' E 023°35'3 0.2
2017-Mar-14 16:33N 37°59' E 023°33'4 3.8
2017-Mar-14 15:33N 38°02' E 023°36'0 0.0
2017-Mar-14 14:33N 38°02' E 023°36'0 0.0
2017-Mar-14 13:33N 38°02' E 023°36'1 0.6
2017-Mar-14 12:33N 38°02' E 023°35'3 2.5
2017-Mar-14 11:33N 38°02' E 023°32'0 0.0
2017-Mar-14 10:33N 38°02' E 023°32'0 0.0
2017-Mar-14 09:33N 38°02' E 023°32'0 0.0
2017-Mar-14 08:33N 38°02' E 023°32'0 0.0
2017-Mar-14 07:33N 38°02' E 023°32'6 6.1
2017-Mar-14 06:33N 37°57' E 023°35'1 0.1
2017-Mar-13 17:14N 37°57' E 023°36'4 5.6
2017-Mar-13 16:33N 38°01' E 023°34'2 1.5
2017-Mar-13 15:33N 38°02' E 023°36'0 0.0
2017-Mar-13 14:32N 38°02' E 023°36'0 0.0
2017-Mar-13 13:33N 38°02' E 023°36'1 1.4
2017-Mar-13 12:33N 38°01' E 023°34'  

Dump ship's entire track history